Position Fahrer Laps Zeit Diff Beste Runde Fahrzeug Status Gesamt Bonuspunkte Strafpunkte
- 1 (1) Dietmar Scholz 17 31:09.060 - 1:48.686 Chevrolet Corvette Greenwood 1977 Beendet 60 0 0
- 2 (2) Gerd Haarkamp 17 31:37.842 0:28.782 1:49.133 Chevrolet Corvette Greenwood 1977 Beendet 55 0 0
- 3 (3) Wolfgang Beuth 17 31:38.104 0:29.044 1:49.522 Fabcar Engineering 935 Beendet 51 0 0
- 4 (4) Tino Kerkow 17 31:46.203 0:37.143 1:49.142 Fabcar Engineering 935 Beendet 48 0 0
5 (6) Dirk Landwehr 17 32:16.393 1:07.333 1:51.234 Chevrolet Dekon Monza Beendet 46 0 0
6 (5) Stefan Schreiner 17 32:19.251 1:10.191 1:50.010 Chevrolet Corvette Greenwood 1977 Beendet 44 0 0
- 7 (7) BlackPrincessOfHearts 16 31:13.450 -1L 1:55.120 BMW 320 Turbo Beendet 42 0 0
8 (9) Steffen Weiß 15 31:54.529 -2L 1:56.425 Fabcar Engineering 935 Beendet 40 0 0
9 (10) Timo Konietzny 10 20:08.735 -7L 1:53.305 BMW 320 Turbo DNF 38 0 0
10 (8) André G. 1 - -16L - BMW 320 Turbo DNF 36 0 0

Rennverlauf

Qualifying

Pos Fahrer Zeit Diff
1 Dietmar Scholz 1:46.885 -
2 Gerd Haarkamp 1:47.479 0:00.594
3 Wolfgang Beuth 1:48.572 0:01.687
4 Tino Kerkow 1:48.954 0:02.069
5 Stefan Schreiner 1:49.008 0:02.123
6 Dirk Landwehr 1:51.021 0:04.136
7 BlackPrincessOfHearts 1:54.019 0:07.134
8 André G. 1:55.616 0:08.731
9 Steffen Weiß 1:59.139 0:12.254
10 Timo Konietzny - -

Climber

Diff Startpos Endpos Fahrer
1 6 5 Dirk Landwehr
1 9 8 Steffen Weiß
1 10 9 Timo Konietzny
- - 1 1 Dietmar Scholz
- - 2 2 Gerd Haarkamp
- - 3 3 Wolfgang Beuth
- - 4 4 Tino Kerkow
- - 7 7 BlackPrincessOfHearts
-1 5 6 Stefan Schreiner
-2 8 10 André G.

Die schnellsten 5 pro Runde

Runde 1

Pos Rennpos Fahrer Zeit Diff
1 2 Dietmar Scholz 1:58.707 -
2 3 Wolfgang Beuth 2:03.209 0:04.502
3 4 Gerd Haarkamp 2:04.372 0:05.665
4 5 Dirk Landwehr 2:06.905 0:08.198
5 6 Stefan Schreiner 2:06.942 0:08.235

Runde 2

Pos Rennpos Fahrer Zeit Diff
1 3 Gerd Haarkamp 1:50.308 -
2 6 Tino Kerkow 1:50.365 0:00.057
3 2 Wolfgang Beuth 1:50.476 0:00.168
4 1 Dietmar Scholz 1:50.694 0:00.386
5 4 Stefan Schreiner 1:53.504 0:03.196

Runde 3

Pos Rennpos Fahrer Zeit Diff
1 1 Dietmar Scholz 1:49.134 -
2 2 Wolfgang Beuth 1:50.074 0:00.940
3 6 Tino Kerkow 1:50.505 0:01.371
4 3 Gerd Haarkamp 1:50.563 0:01.429
5 4 Dirk Landwehr 1:53.077 0:03.943

Runde 4

Pos Rennpos Fahrer Zeit Diff
1 1 Dietmar Scholz 1:48.724 -
2 3 Gerd Haarkamp 1:49.133 0:00.409
3 6 Tino Kerkow 1:49.142 0:00.418
4 2 Wolfgang Beuth 1:49.845 0:01.121
5 4 Dirk Landwehr 1:52.520 0:03.796

Runde 5

Pos Rennpos Fahrer Zeit Diff
1 1 Dietmar Scholz 1:49.137 -
2 3 Gerd Haarkamp 1:49.682 0:00.545
3 2 Wolfgang Beuth 1:49.776 0:00.639
4 4 Stefan Schreiner 1:50.613 0:01.476
5 5 Tino Kerkow 1:50.859 0:01.722

Runde 6

Pos Rennpos Fahrer Zeit Diff
1 1 Dietmar Scholz 1:49.509 -
2 2 Wolfgang Beuth 1:49.949 0:00.440
3 4 Stefan Schreiner 1:50.224 0:00.715
4 3 Gerd Haarkamp 1:50.397 0:00.888
5 5 Tino Kerkow 1:50.479 0:00.970

Runde 7

Pos Rennpos Fahrer Zeit Diff
1 1 Dietmar Scholz 1:48.826 -
2 3 Gerd Haarkamp 1:49.496 0:00.670
3 4 Stefan Schreiner 1:50.010 0:01.184
4 2 Wolfgang Beuth 1:50.075 0:01.249
5 6 Dirk Landwehr 1:51.353 0:02.527

Runde 8

Pos Rennpos Fahrer Zeit Diff
1 2 Wolfgang Beuth 1:49.749 -
2 1 Dietmar Scholz 1:49.859 0:00.110
3 3 Gerd Haarkamp 1:49.995 0:00.246
4 5 Tino Kerkow 1:50.051 0:00.302
5 6 Dirk Landwehr 1:51.234 0:01.485

Runde 9

Pos Rennpos Fahrer Zeit Diff
1 1 Dietmar Scholz 1:49.248 -
2 2 Gerd Haarkamp 1:49.783 0:00.535
3 4 Tino Kerkow 1:49.819 0:00.571
4 6 Dirk Landwehr 1:51.355 0:02.107
5 3 Wolfgang Beuth 1:52.109 0:02.861

Runde 10

Pos Rennpos Fahrer Zeit Diff
1 1 Dietmar Scholz 1:48.968 -
2 4 Tino Kerkow 1:50.069 0:01.101
3 3 Wolfgang Beuth 1:50.176 0:01.208
4 2 Gerd Haarkamp 1:50.610 0:01.642
5 7 BlackPrincessOfHearts 1:55.197 0:06.229

Runde 11

Pos Rennpos Fahrer Zeit Diff
1 1 Dietmar Scholz 1:49.578 -
2 2 Gerd Haarkamp 1:50.191 0:00.613
3 4 Tino Kerkow 1:50.286 0:00.708
4 3 Wolfgang Beuth 1:50.295 0:00.717
5 6 Stefan Schreiner 1:50.866 0:01.288

Runde 12

Pos Rennpos Fahrer Zeit Diff
1 1 Dietmar Scholz 1:48.686 -
2 2 Gerd Haarkamp 1:49.972 0:01.286
3 3 Wolfgang Beuth 1:50.014 0:01.328
4 4 Tino Kerkow 1:50.107 0:01.421
5 5 Dirk Landwehr 1:52.640 0:03.954

Runde 13

Pos Rennpos Fahrer Zeit Diff
1 2 Gerd Haarkamp 1:49.498 -
2 3 Wolfgang Beuth 1:49.522 0:00.024
3 1 Dietmar Scholz 1:49.932 0:00.434
4 4 Tino Kerkow 1:50.127 0:00.629
5 6 Stefan Schreiner 1:51.465 0:01.967

Runde 14

Pos Rennpos Fahrer Zeit Diff
1 1 Dietmar Scholz 1:48.711 -
2 4 Tino Kerkow 1:49.719 0:01.008
3 5 Dirk Landwehr 1:52.356 0:03.645
4 7 BlackPrincessOfHearts 1:55.312 0:06.601
5 3 Wolfgang Beuth 1:58.099 0:09.388

Runde 15

Pos Rennpos Fahrer Zeit Diff
1 1 Dietmar Scholz 1:49.250 -
2 4 Tino Kerkow 1:49.479 0:00.229
3 6 Stefan Schreiner 1:51.328 0:02.078
4 2 Wolfgang Beuth 1:51.762 0:02.512
5 3 Gerd Haarkamp 1:52.063 0:02.813

Runde 16

Pos Rennpos Fahrer Zeit Diff
1 1 Dietmar Scholz 1:49.617 -
2 2 Gerd Haarkamp 1:50.671 0:01.054
3 3 Wolfgang Beuth 1:51.555 0:01.938
4 4 Tino Kerkow 1:51.761 0:02.144
5 5 Dirk Landwehr 1:53.045 0:03.428

Runde 17

Pos Rennpos Fahrer Zeit Diff
1 1 Dietmar Scholz 1:50.480 -
2 3 Wolfgang Beuth 1:51.419 0:00.939
3 2 Gerd Haarkamp 1:51.778 0:01.298
4 6 Stefan Schreiner 1:51.802 0:01.322
5 4 Tino Kerkow 1:52.907 0:02.427

SERVER

0 / 61
virtualracing.org #1 GTM
Training 1Lime Rock Park -- Uphill Chicane
1 / 81
virtualracing.org #3 FS
Training 1Lime Rock Park -- Uphill Chicane
0 / 81
virtualracing.org #4 LSM
Training 1Spa-Francorchamps Endurance
0 / 34
virtualracing.org #5 VRF1S
Training 1Barcelona 2021
0 / 34
virtualracing.org #6 VRCS
Training 1Donington Park National Circuit
0 / 81
virtualracing.org #P1 BTCC
Training 1Oulton Park Island
0 / 81
virtualracing.org #P2 CA
Training 1Oulton Park International NC
0 / 34
virtualracing.org #P3 Mini
Training 1Brands Hatch GP
1 / 33
virtualracing.org #P4 IR18
Training 1Iowa Speedway Oval
0 / 104
virtualracing.org VRES L
TesttagNuerburgring -- rF2LN 24h
15 / 104
virtualracing.org VRES T
TesttagNuerburgring -- rF2LN 24h
0/31
virtualracing.org#4 GTC Training Standard
TrainingCircuito de Jerez - GP
0/31
virtualracing.org#5 GTC Training A
TrainingDaytona International Speedway - Road Course
1/16
virtualracing.org#30 ALT Training
Trainingaa_dover_speedway-nh